This is the latest recevied weather packets stored in our database for station/object IZ5MJO-13. If no packets are shown the sender has not sent any weather packets the latest 10 day(s).
| Time | Temp. | Humidity | Pressure | Rain* | Wind** | Luminosity | Snow |
|---|---|---|---|---|---|---|---|
| 1777745625 | 16.67° C | 35% | 1010 hPa | - | - | - | - |
| 1777744724 | 17.22° C | 33% | 1010.1 hPa | - | - | - | - |
| 1777743824 | 19.44° C | 32% | 1010 hPa | - | - | - | - |
| 1777742924 | 22.22° C | 30% | 1009.8 hPa | - | - | - | - |
| 1777742023 | 23.33° C | 28% | 1009.8 hPa | - | - | - | - |
| 1777741123 | 23.33° C | 28% | 1009.7 hPa | - | - | - | - |
| 1777740223 | 23.89° C | 27% | 1009.8 hPa | - | - | - | - |
| 1777739322 | 25° C | 26% | 1009.8 hPa | - | - | - | - |
| 1777738422 | 26.11° C | 24% | 1009.7 hPa | - | - | - | - |
| 1777737521 | 27.22° C | 23% | 1009.7 hPa | - | - | - | - |
| 1777736621 | 28.89° C | 23% | 1009.8 hPa | - | - | - | - |
| 1777735721 | 30° C | 20% | 1010 hPa | - | - | - | - |
| 1777734821 | 29.44° C | 22% | 1010.1 hPa | - | - | - | - |
| 1777733921 | 29.44° C | 22% | 1010.2 hPa | - | - | - | - |
| 1777733021 | 30° C | 19% | 1010.3 hPa | - | - | - | - |
| 1777732119 | 30° C | 20% | 1010.5 hPa | - | - | - | - |
| 1777731226 | 30° C | 22% | 1010.6 hPa | - | - | - | - |
| 1777730764 | 17.78° C | 31% | 1014.3 hPa | - | - | - | - |
| 1777730326 | 28.89° C | 22% | 1011 hPa | - | - | - | - |
| 1777729426 | 29.44° C | 23% | 1011.2 hPa | - | - | - | - |
| 1777728525 | 28.89° C | 21% | 1011.4 hPa | - | - | - | - |
| 1777728524 | 17.22° C | 31% | 1014.4 hPa | - | - | - | - |
| 1777727625 | 27.78° C | 19% | 1011.5 hPa | - | - | - | - |
| 1777726725 | 27.78° C | 22% | 1011.8 hPa | - | - | - | - |
| 1777725824 | 26.67° C | 25% | 1011.8 hPa | - | - | - | - |
* Rain since midnight (hover to see other rain measurements)
** Current wind speed in m/s (hover to see current wind gust speed)